sensor_id;sensor_type;location;lat;lon;timestamp;P1;durP1;ratioP1;P2;durP2;ratioP2
10731;SDS011;74907;42.812;23.216;2024-02-23T00:00:49;14.20;;;12.27;;
10731;SDS011;74907;42.812;23.216;2024-02-23T00:03:15;12.60;;;11.30;;
10731;SDS011;74907;42.812;23.216;2024-02-23T00:05:42;13.47;;;11.47;;
10731;SDS011;74907;42.812;23.216;2024-02-23T00:08:09;11.83;;;10.63;;
10731;SDS011;74907;42.812;23.216;2024-02-23T00:10:35;13.10;;;11.37;;
10731;SDS011;74907;42.812;23.216;2024-02-23T00:13:02;12.63;;;11.23;;
10731;SDS011;74907;42.812;23.216;2024-02-23T00:15:30;13.33;;;11.93;;
10731;SDS011;74907;42.812;23.216;2024-02-23T00:17:57;13.63;;;11.97;;
10731;SDS011;74907;42.812;23.216;2024-02-23T00:20:24;12.57;;;11.37;;
10731;SDS011;74907;42.812;23.216;2024-02-23T00:22:50;12.60;;;11.30;;
10731;SDS011;74907;42.812;23.216;2024-02-23T00:25:17;12.03;;;10.90;;
10731;SDS011;74907;42.812;23.216;2024-02-23T00:27:44;12.97;;;11.60;;
10731;SDS011;74907;42.812;23.216;2024-02-23T00:30:12;12.97;;;11.47;;
10731;SDS011;74907;42.812;23.216;2024-02-23T00:32:41;12.63;;;11.40;;
10731;SDS011;74907;42.812;23.216;2024-02-23T00:35:08;12.63;;;11.40;;
10731;SDS011;74907;42.812;23.216;2024-02-23T00:37:34;12.10;;;10.90;;
10731;SDS011;74907;42.812;23.216;2024-02-23T00:40:01;12.87;;;11.43;;
10731;SDS011;74907;42.812;23.216;2024-02-23T00:42:29;12.50;;;11.30;;
10731;SDS011;74907;42.812;23.216;2024-02-23T00:44:55;13.37;;;11.67;;
10731;SDS011;74907;42.812;23.216;2024-02-23T00:47:22;13.10;;;11.70;;
10731;SDS011;74907;42.812;23.216;2024-02-23T00:49:50;12.63;;;11.43;;
10731;SDS011;74907;42.812;23.216;2024-02-23T00:52:17;13.00;;;11.50;;
10731;SDS011;74907;42.812;23.216;2024-02-23T00:54:46;13.10;;;11.03;;
10731;SDS011;74907;42.812;23.216;2024-02-23T00:57:13;12.80;;;11.50;;
10731;SDS011;74907;42.812;23.216;2024-02-23T00:59:40;12.63;;;11.23;;
10731;SDS011;74907;42.812;23.216;2024-02-23T01:02:07;12.90;;;11.23;;
10731;SDS011;74907;42.812;23.216;2024-02-23T01:04:34;12.73;;;11.53;;
10731;SDS011;74907;42.812;23.216;2024-02-23T01:07:02;13.20;;;11.90;;
10731;SDS011;74907;42.812;23.216;2024-02-23T01:09:29;13.13;;;11.33;;
10731;SDS011;74907;42.812;23.216;2024-02-23T01:11:56;12.10;;;10.90;;
10731;SDS011;74907;42.812;23.216;2024-02-23T01:14:22;12.67;;;11.47;;
10731;SDS011;74907;42.812;23.216;2024-02-23T01:16:50;12.70;;;11.40;;
10731;SDS011;74907;42.812;23.216;2024-02-23T01:19:18;12.90;;;11.50;;
10731;SDS011;74907;42.812;23.216;2024-02-23T01:21:45;12.60;;;11.40;;
10731;SDS011;74907;42.812;23.216;2024-02-23T01:24:13;13.20;;;11.87;;
10731;SDS011;74907;42.812;23.216;2024-02-23T01:26:39;13.07;;;11.73;;
10731;SDS011;74907;42.812;23.216;2024-02-23T01:29:06;11.73;;;10.17;;
10731;SDS011;74907;42.812;23.216;2024-02-23T01:31:33;12.30;;;11.10;;
10731;SDS011;74907;42.812;23.216;2024-02-23T01:34:00;11.97;;;10.77;;
10731;SDS011;74907;42.812;23.216;2024-02-23T01:36:26;11.53;;;10.47;;
10731;SDS011;74907;42.812;23.216;2024-02-23T01:38:53;11.80;;;10.60;;
10731;SDS011;74907;42.812;23.216;2024-02-23T01:41:21;10.90;;;9.50;;
10731;SDS011;74907;42.812;23.216;2024-02-23T01:43:48;11.60;;;10.43;;
10731;SDS011;74907;42.812;23.216;2024-02-23T01:46:16;10.83;;;9.73;;
10731;SDS011;74907;42.812;23.216;2024-02-23T01:48:44;13.30;;;10.90;;
10731;SDS011;74907;42.812;23.216;2024-02-23T01:51:11;14.70;;;11.83;;
10731;SDS011;74907;42.812;23.216;2024-02-23T01:53:38;12.47;;;11.27;;
10731;SDS011;74907;42.812;23.216;2024-02-23T01:56:06;12.27;;;10.40;;
10731;SDS011;74907;42.812;23.216;2024-02-23T01:58:34;11.93;;;10.77;;
10731;SDS011;74907;42.812;23.216;2024-02-23T02:01:02;12.93;;;11.67;;
10731;SDS011;74907;42.812;23.216;2024-02-23T02:03:28;12.60;;;11.40;;
10731;SDS011;74907;42.812;23.216;2024-02-23T02:05:56;11.90;;;10.70;;
10731;SDS011;74907;42.812;23.216;2024-02-23T02:08:24;13.77;;;10.87;;
10731;SDS011;74907;42.812;23.216;2024-02-23T02:10:51;12.90;;;11.50;;
10731;SDS011;74907;42.812;23.216;2024-02-23T02:13:18;13.20;;;11.80;;
10731;SDS011;74907;42.812;23.216;2024-02-23T02:15:46;12.73;;;11.43;;
10731;SDS011;74907;42.812;23.216;2024-02-23T02:18:13;13.33;;;10.47;;
10731;SDS011;74907;42.812;23.216;2024-02-23T02:20:40;12.67;;;10.70;;
10731;SDS011;74907;42.812;23.216;2024-02-23T02:23:21;12.87;;;10.77;;
10731;SDS011;74907;42.812;23.216;2024-02-23T02:25:52;12.17;;;10.67;;
10731;SDS011;74907;42.812;23.216;2024-02-23T02:28:19;15.77;;;11.40;;
10731;SDS011;74907;42.812;23.216;2024-02-23T02:30:47;13.07;;;11.77;;
10731;SDS011;74907;42.812;23.216;2024-02-23T02:33:14;13.27;;;11.80;;
10731;SDS011;74907;42.812;23.216;2024-02-23T02:35:41;13.83;;;11.83;;
10731;SDS011;74907;42.812;23.216;2024-02-23T02:38:08;14.97;;;11.93;;
10731;SDS011;74907;42.812;23.216;2024-02-23T02:40:35;12.73;;;11.43;;
10731;SDS011;74907;42.812;23.216;2024-02-23T02:43:01;13.47;;;11.80;;
10731;SDS011;74907;42.812;23.216;2024-02-23T02:45:28;12.97;;;11.57;;
10731;SDS011;74907;42.812;23.216;2024-02-23T02:47:57;13.03;;;11.67;;
10731;SDS011;74907;42.812;23.216;2024-02-23T02:50:23;13.60;;;11.40;;
10731;SDS011;74907;42.812;23.216;2024-02-23T02:52:50;13.00;;;11.70;;
10731;SDS011;74907;42.812;23.216;2024-02-23T02:55:17;13.10;;;11.70;;
10731;SDS011;74907;42.812;23.216;2024-02-23T02:57:44;15.10;;;12.23;;
10731;SDS011;74907;42.812;23.216;2024-02-23T03:00:11;13.50;;;11.90;;
10731;SDS011;74907;42.812;23.216;2024-02-23T03:02:38;15.03;;;13.23;;
10731;SDS011;74907;42.812;23.216;2024-02-23T03:05:06;14.10;;;12.10;;
10731;SDS011;74907;42.812;23.216;2024-02-23T03:07:34;13.93;;;12.03;;
10731;SDS011;74907;42.812;23.216;2024-02-23T03:10:01;14.07;;;12.50;;
10731;SDS011;74907;42.812;23.216;2024-02-23T03:12:27;14.00;;;11.60;;
10731;SDS011;74907;42.812;23.216;2024-02-23T03:14:54;13.83;;;12.33;;
10731;SDS011;74907;42.812;23.216;2024-02-23T03:17:21;13.00;;;11.70;;
10731;SDS011;74907;42.812;23.216;2024-02-23T03:19:48;12.73;;;11.33;;
10731;SDS011;74907;42.812;23.216;2024-02-23T03:22:16;15.03;;;12.13;;
10731;SDS011;74907;42.812;23.216;2024-02-23T03:24:43;13.57;;;11.13;;
10731;SDS011;74907;42.812;23.216;2024-02-23T03:27:10;15.60;;;12.20;;
10731;SDS011;74907;42.812;23.216;2024-02-23T03:29:37;13.00;;;11.70;;
10731;SDS011;74907;42.812;23.216;2024-02-23T03:32:05;13.27;;;11.97;;
10731;SDS011;74907;42.812;23.216;2024-02-23T03:34:32;13.37;;;11.87;;
10731;SDS011;74907;42.812;23.216;2024-02-23T03:36:59;13.13;;;11.73;;
10731;SDS011;74907;42.812;23.216;2024-02-23T03:39:28;13.13;;;11.87;;
10731;SDS011;74907;42.812;23.216;2024-02-23T03:41:57;13.00;;;11.40;;
10731;SDS011;74907;42.812;23.216;2024-02-23T03:44:23;14.43;;;11.73;;
10731;SDS011;74907;42.812;23.216;2024-02-23T03:46:50;13.23;;;11.83;;
10731;SDS011;74907;42.812;23.216;2024-02-23T03:49:17;12.50;;;11.10;;
10731;SDS011;74907;42.812;23.216;2024-02-23T03:51:43;15.53;;;12.23;;
10731;SDS011;74907;42.812;23.216;2024-02-23T03:54:11;11.33;;;10.13;;
10731;SDS011;74907;42.812;23.216;2024-02-23T03:56:39;13.10;;;11.53;;
10731;SDS011;74907;42.812;23.216;2024-02-23T03:59:06;13.80;;;12.33;;
10731;SDS011;74907;42.812;23.216;2024-02-23T04:01:34;13.27;;;11.73;;
10731;SDS011;74907;42.812;23.216;2024-02-23T04:04:02;13.63;;;12.23;;
10731;SDS011;74907;42.812;23.216;2024-02-23T04:06:29;12.77;;;10.93;;
10731;SDS011;74907;42.812;23.216;2024-02-23T04:08:56;13.13;;;11.83;;
10731;SDS011;74907;42.812;23.216;2024-02-23T04:11:22;14.07;;;12.07;;
10731;SDS011;74907;42.812;23.216;2024-02-23T04:13:50;12.97;;;11.70;;
10731;SDS011;74907;42.812;23.216;2024-02-23T04:16:17;12.70;;;11.40;;
10731;SDS011;74907;42.812;23.216;2024-02-23T04:18:44;12.70;;;11.27;;
10731;SDS011;74907;42.812;23.216;2024-02-23T04:21:11;13.13;;;11.73;;
10731;SDS011;74907;42.812;23.216;2024-02-23T04:23:37;12.73;;;11.10;;
10731;SDS011;74907;42.812;23.216;2024-02-23T04:26:04;14.67;;;12.73;;
10731;SDS011;74907;42.812;23.216;2024-02-23T04:28:31;13.83;;;11.97;;
10731;SDS011;74907;42.812;23.216;2024-02-23T04:31:00;12.37;;;11.13;;
10731;SDS011;74907;42.812;23.216;2024-02-23T04:33:26;13.47;;;11.97;;
10731;SDS011;74907;42.812;23.216;2024-02-23T04:35:53;13.83;;;12.03;;
10731;SDS011;74907;42.812;23.216;2024-02-23T04:38:20;14.10;;;11.90;;
10731;SDS011;74907;42.812;23.216;2024-02-23T04:40:46;12.27;;;10.97;;
10731;SDS011;74907;42.812;23.216;2024-02-23T04:43:13;13.77;;;12.33;;
10731;SDS011;74907;42.812;23.216;2024-02-23T04:45:40;13.47;;;11.67;;
10731;SDS011;74907;42.812;23.216;2024-02-23T04:48:08;12.63;;;11.33;;
10731;SDS011;74907;42.812;23.216;2024-02-23T04:50:36;13.17;;;11.27;;
10731;SDS011;74907;42.812;23.216;2024-02-23T04:53:02;12.20;;;10.80;;
10731;SDS011;74907;42.812;23.216;2024-02-23T04:55:29;12.17;;;10.43;;
10731;SDS011;74907;42.812;23.216;2024-02-23T04:57:56;12.43;;;11.13;;
10731;SDS011;74907;42.812;23.216;2024-02-23T05:00:23;12.30;;;10.60;;
10731;SDS011;74907;42.812;23.216;2024-02-23T05:02:53;11.83;;;10.70;;
10731;SDS011;74907;42.812;23.216;2024-02-23T05:05:21;13.03;;;11.13;;
10731;SDS011;74907;42.812;23.216;2024-02-23T05:07:48;12.73;;;10.67;;
10731;SDS011;74907;42.812;23.216;2024-02-23T05:10:15;12.33;;;10.80;;
10731;SDS011;74907;42.812;23.216;2024-02-23T05:12:43;13.37;;;11.77;;
10731;SDS011;74907;42.812;23.216;2024-02-23T05:15:09;14.13;;;11.97;;
10731;SDS011;74907;42.812;23.216;2024-02-23T05:17:36;14.77;;;13.23;;
10731;SDS011;74907;42.812;23.216;2024-02-23T05:20:03;16.70;;;13.53;;
10731;SDS011;74907;42.812;23.216;2024-02-23T05:22:34;16.10;;;13.97;;
10731;SDS011;74907;42.812;23.216;2024-02-23T05:25:01;16.50;;;14.77;;
10731;SDS011;74907;42.812;23.216;2024-02-23T05:27:30;15.20;;;13.63;;
10731;SDS011;74907;42.812;23.216;2024-02-23T05:29:55;16.20;;;13.60;;
10731;SDS011;74907;42.812;23.216;2024-02-23T05:32:22;15.03;;;12.93;;
10731;SDS011;74907;42.812;23.216;2024-02-23T05:34:49;14.97;;;12.20;;
10731;SDS011;74907;42.812;23.216;2024-02-23T05:37:18;12.03;;;10.83;;
10731;SDS011;74907;42.812;23.216;2024-02-23T05:39:46;13.43;;;12.13;;
10731;SDS011;74907;42.812;23.216;2024-02-23T05:42:13;14.53;;;12.50;;
10731;SDS011;74907;42.812;23.216;2024-02-23T05:44:42;13.07;;;11.77;;
10731;SDS011;74907;42.812;23.216;2024-02-23T05:47:09;17.10;;;13.53;;
10731;SDS011;74907;42.812;23.216;2024-02-23T05:49:36;20.60;;;14.73;;
10731;SDS011;74907;42.812;23.216;2024-02-23T05:52:03;21.03;;;15.17;;
10731;SDS011;74907;42.812;23.216;2024-02-23T05:54:30;16.23;;;13.40;;
10731;SDS011;74907;42.812;23.216;2024-02-23T05:56:58;16.67;;;13.43;;
10731;SDS011;74907;42.812;23.216;2024-02-23T05:59:25;14.67;;;12.50;;
10731;SDS011;74907;42.812;23.216;2024-02-23T06:01:52;13.87;;;11.50;;
10731;SDS011;74907;42.812;23.216;2024-02-23T06:04:21;13.23;;;11.77;;
10731;SDS011;74907;42.812;23.216;2024-02-23T06:06:48;13.37;;;11.93;;
10731;SDS011;74907;42.812;23.216;2024-02-23T06:09:15;12.90;;;11.23;;
10731;SDS011;74907;42.812;23.216;2024-02-23T06:11:42;14.83;;;11.70;;
10731;SDS011;74907;42.812;23.216;2024-02-23T06:14:10;13.23;;;11.00;;
10731;SDS011;74907;42.812;23.216;2024-02-23T06:16:37;11.53;;;10.33;;
10731;SDS011;74907;42.812;23.216;2024-02-23T06:19:03;12.87;;;11.47;;
10731;SDS011;74907;42.812;23.216;2024-02-23T06:21:30;15.07;;;12.27;;
10731;SDS011;74907;42.812;23.216;2024-02-23T06:23:57;12.13;;;9.60;;
10731;SDS011;74907;42.812;23.216;2024-02-23T06:26:24;10.20;;;9.20;;
10731;SDS011;74907;42.812;23.216;2024-02-23T06:28:51;10.80;;;9.80;;
10731;SDS011;74907;42.812;23.216;2024-02-23T06:31:19;12.57;;;9.80;;
10731;SDS011;74907;42.812;23.216;2024-02-23T06:33:45;11.23;;;9.67;;
10731;SDS011;74907;42.812;23.216;2024-02-23T06:36:14;10.93;;;9.93;;
10731;SDS011;74907;42.812;23.216;2024-02-23T06:38:41;11.13;;;9.77;;
10731;SDS011;74907;42.812;23.216;2024-02-23T06:41:07;10.77;;;9.40;;
10731;SDS011;74907;42.812;23.216;2024-02-23T06:43:36;10.80;;;9.83;;
10731;SDS011;74907;42.812;23.216;2024-02-23T06:46:04;11.33;;;10.23;;
10731;SDS011;74907;42.812;23.216;2024-02-23T06:48:34;11.73;;;10.53;;
10731;SDS011;74907;42.812;23.216;2024-02-23T06:51:01;12.87;;;10.80;;
10731;SDS011;74907;42.812;23.216;2024-02-23T06:53:30;10.77;;;9.70;;
10731;SDS011;74907;42.812;23.216;2024-02-23T06:55:57;10.63;;;8.90;;
10731;SDS011;74907;42.812;23.216;2024-02-23T06:58:25;10.37;;;9.50;;
10731;SDS011;74907;42.812;23.216;2024-02-23T07:00:52;15.23;;;12.20;;
10731;SDS011;74907;42.812;23.216;2024-02-23T07:03:20;10.57;;;9.30;;
10731;SDS011;74907;42.812;23.216;2024-02-23T07:05:49;10.90;;;9.30;;
10731;SDS011;74907;42.812;23.216;2024-02-23T07:08:16;10.27;;;9.27;;
10731;SDS011;74907;42.812;23.216;2024-02-23T07:10:43;10.43;;;9.53;;
10731;SDS011;74907;42.812;23.216;2024-02-23T07:13:10;10.27;;;9.10;;
10731;SDS011;74907;42.812;23.216;2024-02-23T07:15:37;11.50;;;10.40;;
10731;SDS011;74907;42.812;23.216;2024-02-23T07:18:04;13.13;;;10.47;;
10731;SDS011;74907;42.812;23.216;2024-02-23T07:20:33;12.00;;;10.53;;
10731;SDS011;74907;42.812;23.216;2024-02-23T07:23:01;10.40;;;9.43;;
10731;SDS011;74907;42.812;23.216;2024-02-23T07:25:28;10.33;;;9.23;;
10731;SDS011;74907;42.812;23.216;2024-02-23T07:27:55;10.03;;;9.10;;
10731;SDS011;74907;42.812;23.216;2024-02-23T07:30:21;9.60;;;8.70;;
10731;SDS011;74907;42.812;23.216;2024-02-23T07:32:48;9.60;;;8.80;;
10731;SDS011;74907;42.812;23.216;2024-02-23T07:35:15;9.93;;;8.93;;
10731;SDS011;74907;42.812;23.216;2024-02-23T07:37:42;10.60;;;9.27;;
10731;SDS011;74907;42.812;23.216;2024-02-23T07:40:10;10.07;;;8.93;;
10731;SDS011;74907;42.812;23.216;2024-02-23T07:42:38;10.27;;;8.63;;
10731;SDS011;74907;42.812;23.216;2024-02-23T07:45:06;9.17;;;8.37;;
10731;SDS011;74907;42.812;23.216;2024-02-23T07:47:34;9.43;;;8.60;;
10731;SDS011;74907;42.812;23.216;2024-02-23T07:50:01;9.67;;;8.90;;
10731;SDS011;74907;42.812;23.216;2024-02-23T07:52:28;10.10;;;8.80;;
10731;SDS011;74907;42.812;23.216;2024-02-23T07:54:54;9.03;;;8.13;;
10731;SDS011;74907;42.812;23.216;2024-02-23T07:57:23;9.70;;;8.70;;
10731;SDS011;74907;42.812;23.216;2024-02-23T07:59:50;9.57;;;8.73;;
10731;SDS011;74907;42.812;23.216;2024-02-23T08:02:16;8.70;;;7.90;;
10731;SDS011;74907;42.812;23.216;2024-02-23T08:04:43;13.20;;;11.90;;
10731;SDS011;74907;42.812;23.216;2024-02-23T08:07:12;11.37;;;10.17;;
10731;SDS011;74907;42.812;23.216;2024-02-23T08:09:39;10.07;;;9.03;;
10731;SDS011;74907;42.812;23.216;2024-02-23T08:12:06;7.00;;;6.40;;
10731;SDS011;74907;42.812;23.216;2024-02-23T08:14:35;8.63;;;6.60;;
10731;SDS011;74907;42.812;23.216;2024-02-23T08:17:01;7.23;;;6.53;;
10731;SDS011;74907;42.812;23.216;2024-02-23T08:19:28;8.83;;;7.07;;
10731;SDS011;74907;42.812;23.216;2024-02-23T08:21:55;7.57;;;6.90;;
10731;SDS011;74907;42.812;23.216;2024-02-23T08:24:22;9.17;;;8.27;;
10731;SDS011;74907;42.812;23.216;2024-02-23T08:26:49;11.57;;;8.10;;
10731;SDS011;74907;42.812;23.216;2024-02-23T08:29:15;7.83;;;6.70;;
10731;SDS011;74907;42.812;23.216;2024-02-23T08:31:44;7.27;;;6.57;;
10731;SDS011;74907;42.812;23.216;2024-02-23T08:34:11;7.83;;;7.13;;
10731;SDS011;74907;42.812;23.216;2024-02-23T08:36:38;6.93;;;6.23;;
10731;SDS011;74907;42.812;23.216;2024-02-23T08:39:04;6.77;;;6.17;;
10731;SDS011;74907;42.812;23.216;2024-02-23T08:41:33;10.13;;;6.57;;
10731;SDS011;74907;42.812;23.216;2024-02-23T08:43:59;7.37;;;6.40;;
10731;SDS011;74907;42.812;23.216;2024-02-23T08:46:26;7.07;;;6.40;;
10731;SDS011;74907;42.812;23.216;2024-02-23T08:48:54;12.00;;;6.53;;
10731;SDS011;74907;42.812;23.216;2024-02-23T08:51:21;11.47;;;5.70;;
10731;SDS011;74907;42.812;23.216;2024-02-23T08:53:48;5.33;;;4.83;;
10731;SDS011;74907;42.812;23.216;2024-02-23T08:56:14;5.23;;;4.80;;
10731;SDS011;74907;42.812;23.216;2024-02-23T08:58:41;6.60;;;5.90;;
10731;SDS011;74907;42.812;23.216;2024-02-23T09:01:08;7.30;;;4.93;;
10731;SDS011;74907;42.812;23.216;2024-02-23T09:03:35;5.43;;;4.27;;
10731;SDS011;74907;42.812;23.216;2024-02-23T09:06:05;4.77;;;4.43;;
10731;SDS011;74907;42.812;23.216;2024-02-23T09:08:32;7.10;;;4.20;;
10731;SDS011;74907;42.812;23.216;2024-02-23T09:11:00;4.73;;;4.13;;
10731;SDS011;74907;42.812;23.216;2024-02-23T09:13:27;4.97;;;4.57;;
10731;SDS011;74907;42.812;23.216;2024-02-23T09:15:55;5.47;;;5.07;;
10731;SDS011;74907;42.812;23.216;2024-02-23T09:18:23;7.27;;;4.27;;
10731;SDS011;74907;42.812;23.216;2024-02-23T09:20:50;4.73;;;4.33;;
10731;SDS011;74907;42.812;23.216;2024-02-23T09:23:18;4.23;;;3.80;;
10731;SDS011;74907;42.812;23.216;2024-02-23T09:25:45;5.10;;;3.93;;
10731;SDS011;74907;42.812;23.216;2024-02-23T09:28:11;3.83;;;3.50;;
10731;SDS011;74907;42.812;23.216;2024-02-23T09:30:38;3.93;;;3.63;;
10731;SDS011;74907;42.812;23.216;2024-02-23T09:33:05;3.37;;;3.17;;
10731;SDS011;74907;42.812;23.216;2024-02-23T09:35:32;5.03;;;3.60;;
10731;SDS011;74907;42.812;23.216;2024-02-23T09:37:58;4.00;;;3.30;;
10731;SDS011;74907;42.812;23.216;2024-02-23T09:40:26;4.07;;;3.67;;
10731;SDS011;74907;42.812;23.216;2024-02-23T09:42:55;4.87;;;3.73;;
10731;SDS011;74907;42.812;23.216;2024-02-23T09:45:24;3.83;;;3.53;;
10731;SDS011;74907;42.812;23.216;2024-02-23T09:47:52;4.63;;;3.20;;
10731;SDS011;74907;42.812;23.216;2024-02-23T09:50:21;3.20;;;2.90;;
10731;SDS011;74907;42.812;23.216;2024-02-23T09:52:49;3.83;;;3.57;;
10731;SDS011;74907;42.812;23.216;2024-02-23T09:55:16;3.07;;;2.87;;
10731;SDS011;74907;42.812;23.216;2024-02-23T09:57:45;3.10;;;2.90;;
10731;SDS011;74907;42.812;23.216;2024-02-23T10:00:15;4.27;;;3.20;;
10731;SDS011;74907;42.812;23.216;2024-02-23T10:02:43;4.17;;;3.57;;
10731;SDS011;74907;42.812;23.216;2024-02-23T10:05:10;3.53;;;3.23;;
10731;SDS011;74907;42.812;23.216;2024-02-23T10:07:38;3.20;;;3.00;;
10731;SDS011;74907;42.812;23.216;2024-02-23T10:10:06;3.37;;;2.70;;
10731;SDS011;74907;42.812;23.216;2024-02-23T10:12:33;4.53;;;2.90;;
10731;SDS011;74907;42.812;23.216;2024-02-23T10:15:02;4.30;;;3.90;;
10731;SDS011;74907;42.812;23.216;2024-02-23T10:17:29;4.10;;;3.80;;
10731;SDS011;74907;42.812;23.216;2024-02-23T10:19:55;4.53;;;3.70;;
10731;SDS011;74907;42.812;23.216;2024-02-23T10:22:22;4.10;;;3.30;;
10731;SDS011;74907;42.812;23.216;2024-02-23T10:24:50;3.80;;;3.50;;
10731;SDS011;74907;42.812;23.216;2024-02-23T10:27:16;3.37;;;3.07;;
10731;SDS011;74907;42.812;23.216;2024-02-23T10:29:43;3.93;;;3.60;;
10731;SDS011;74907;42.812;23.216;2024-02-23T10:32:13;3.30;;;3.10;;
10731;SDS011;74907;42.812;23.216;2024-02-23T10:34:41;3.40;;;3.10;;
10731;SDS011;74907;42.812;23.216;2024-02-23T10:37:09;3.43;;;3.23;;
10731;SDS011;74907;42.812;23.216;2024-02-23T10:39:36;3.63;;;3.00;;
10731;SDS011;74907;42.812;23.216;2024-02-23T10:42:03;3.33;;;3.00;;
10731;SDS011;74907;42.812;23.216;2024-02-23T10:44:32;3.37;;;3.07;;
10731;SDS011;74907;42.812;23.216;2024-02-23T10:46:59;2.80;;;2.60;;
10731;SDS011;74907;42.812;23.216;2024-02-23T10:49:29;3.00;;;2.80;;
10731;SDS011;74907;42.812;23.216;2024-02-23T10:51:57;5.47;;;3.20;;
10731;SDS011;74907;42.812;23.216;2024-02-23T10:54:25;16.00;;;4.10;;
10731;SDS011;74907;42.812;23.216;2024-02-23T10:56:52;3.40;;;3.10;;
10731;SDS011;74907;42.812;23.216;2024-02-23T10:59:20;6.07;;;3.00;;
10731;SDS011;74907;42.812;23.216;2024-02-23T11:01:48;3.50;;;3.20;;
10731;SDS011;74907;42.812;23.216;2024-02-23T11:04:17;3.13;;;2.93;;
10731;SDS011;74907;42.812;23.216;2024-02-23T11:06:50;3.37;;;3.07;;
10731;SDS011;74907;42.812;23.216;2024-02-23T11:09:20;2.73;;;2.53;;
10731;SDS011;74907;42.812;23.216;2024-02-23T11:11:52;3.37;;;3.03;;
10731;SDS011;74907;42.812;23.216;2024-02-23T11:14:29;2.90;;;2.70;;
10731;SDS011;74907;42.812;23.216;2024-02-23T11:16:57;3.50;;;3.20;;
10731;SDS011;74907;42.812;23.216;2024-02-23T11:19:31;3.13;;;2.90;;
10731;SDS011;74907;42.812;23.216;2024-02-23T11:22:00;3.23;;;2.80;;
10731;SDS011;74907;42.812;23.216;2024-02-23T11:24:29;4.67;;;3.07;;
10731;SDS011;74907;42.812;23.216;2024-02-23T11:26:56;3.07;;;2.57;;
10731;SDS011;74907;42.812;23.216;2024-02-23T11:29:25;3.60;;;3.30;;
10731;SDS011;74907;42.812;23.216;2024-02-23T11:31:53;4.07;;;2.63;;
10731;SDS011;74907;42.812;23.216;2024-02-23T11:34:26;2.70;;;2.50;;
10731;SDS011;74907;42.812;23.216;2024-02-23T11:36:53;2.97;;;2.70;;
10731;SDS011;74907;42.812;23.216;2024-02-23T11:39:22;3.90;;;2.70;;
10731;SDS011;74907;42.812;23.216;2024-02-23T11:41:51;4.37;;;2.60;;
10731;SDS011;74907;42.812;23.216;2024-02-23T11:44:18;2.60;;;2.50;;
10731;SDS011;74907;42.812;23.216;2024-02-23T11:46:45;2.70;;;2.57;;
10731;SDS011;74907;42.812;23.216;2024-02-23T11:49:13;2.87;;;2.67;;
10731;SDS011;74907;42.812;23.216;2024-02-23T11:51:40;3.20;;;3.00;;
10731;SDS011;74907;42.812;23.216;2024-02-23T11:54:07;2.93;;;2.73;;
10731;SDS011;74907;42.812;23.216;2024-02-23T11:56:36;4.17;;;3.10;;
10731;SDS011;74907;42.812;23.216;2024-02-23T11:59:02;2.83;;;2.63;;
10731;SDS011;74907;42.812;23.216;2024-02-23T12:01:30;2.40;;;2.20;;
10731;SDS011;74907;42.812;23.216;2024-02-23T12:03:57;3.13;;;2.83;;
10731;SDS011;74907;42.812;23.216;2024-02-23T12:06:24;3.87;;;2.80;;
10731;SDS011;74907;42.812;23.216;2024-02-23T12:08:54;2.67;;;2.47;;
10731;SDS011;74907;42.812;23.216;2024-02-23T12:11:21;3.47;;;1.77;;
10731;SDS011;74907;42.812;23.216;2024-02-23T12:13:49;8.23;;;3.23;;
10731;SDS011;74907;42.812;23.216;2024-02-23T12:16:16;3.17;;;2.87;;
10731;SDS011;74907;42.812;23.216;2024-02-23T12:18:43;3.80;;;3.33;;
10731;SDS011;74907;42.812;23.216;2024-02-23T12:21:10;6.33;;;2.87;;
10731;SDS011;74907;42.812;23.216;2024-02-23T12:23:40;3.10;;;2.70;;
10731;SDS011;74907;42.812;23.216;2024-02-23T12:26:07;2.40;;;2.20;;
10731;SDS011;74907;42.812;23.216;2024-02-23T12:28:34;2.10;;;2.00;;
10731;SDS011;74907;42.812;23.216;2024-02-23T12:31:03;2.20;;;2.10;;
10731;SDS011;74907;42.812;23.216;2024-02-23T12:33:31;3.10;;;2.90;;
10731;SDS011;74907;42.812;23.216;2024-02-23T12:35:59;2.70;;;2.50;;
10731;SDS011;74907;42.812;23.216;2024-02-23T12:38:27;2.40;;;2.30;;
10731;SDS011;74907;42.812;23.216;2024-02-23T12:40:54;4.30;;;2.60;;
10731;SDS011;74907;42.812;23.216;2024-02-23T12:43:21;3.83;;;3.00;;
10731;SDS011;74907;42.812;23.216;2024-02-23T12:45:49;3.23;;;2.87;;
10731;SDS011;74907;42.812;23.216;2024-02-23T12:48:17;3.13;;;2.10;;
10731;SDS011;74907;42.812;23.216;2024-02-23T12:50:45;2.77;;;2.50;;
10731;SDS011;74907;42.812;23.216;2024-02-23T12:53:29;2.80;;;2.60;;
10731;SDS011;74907;42.812;23.216;2024-02-23T12:55:58;2.40;;;2.30;;
10731;SDS011;74907;42.812;23.216;2024-02-23T12:58:24;3.30;;;3.00;;
10731;SDS011;74907;42.812;23.216;2024-02-23T13:00:51;3.30;;;3.00;;
10731;SDS011;74907;42.812;23.216;2024-02-23T13:03:20;3.93;;;2.93;;
10731;SDS011;74907;42.812;23.216;2024-02-23T13:05:47;3.50;;;2.87;;
10731;SDS011;74907;42.812;23.216;2024-02-23T13:08:13;2.30;;;2.20;;
10731;SDS011;74907;42.812;23.216;2024-02-23T13:10:40;2.33;;;2.13;;
10731;SDS011;74907;42.812;23.216;2024-02-23T13:13:07;2.43;;;1.97;;
10731;SDS011;74907;42.812;23.216;2024-02-23T13:15:33;2.20;;;2.10;;
10731;SDS011;74907;42.812;23.216;2024-02-23T13:18:01;2.83;;;2.60;;
10731;SDS011;74907;42.812;23.216;2024-02-23T13:20:30;3.50;;;3.30;;
10731;SDS011;74907;42.812;23.216;2024-02-23T13:22:56;4.23;;;3.93;;
10731;SDS011;74907;42.812;23.216;2024-02-23T13:25:23;3.40;;;2.83;;
10731;SDS011;74907;42.812;23.216;2024-02-23T13:27:50;2.10;;;1.90;;
10731;SDS011;74907;42.812;23.216;2024-02-23T13:30:17;2.90;;;2.70;;
10731;SDS011;74907;42.812;23.216;2024-02-23T13:32:44;2.50;;;2.30;;
10731;SDS011;74907;42.812;23.216;2024-02-23T13:35:10;2.33;;;2.10;;
10731;SDS011;74907;42.812;23.216;2024-02-23T13:37:40;3.40;;;2.33;;
10731;SDS011;74907;42.812;23.216;2024-02-23T13:40:08;2.30;;;1.73;;
10731;SDS011;74907;42.812;23.216;2024-02-23T13:42:35;1.90;;;1.80;;
10731;SDS011;74907;42.812;23.216;2024-02-23T13:45:04;2.00;;;1.90;;
10731;SDS011;74907;42.812;23.216;2024-02-23T13:47:31;2.60;;;2.40;;
10731;SDS011;74907;42.812;23.216;2024-02-23T13:49:58;2.83;;;2.63;;
10731;SDS011;74907;42.812;23.216;2024-02-23T13:52:25;3.10;;;2.40;;
10731;SDS011;74907;42.812;23.216;2024-02-23T13:54:53;3.57;;;3.27;;
10731;SDS011;74907;42.812;23.216;2024-02-23T13:57:25;3.13;;;2.47;;
10731;SDS011;74907;42.812;23.216;2024-02-23T13:59:59;4.67;;;4.33;;
10731;SDS011;74907;42.812;23.216;2024-02-23T14:02:27;11.97;;;8.13;;
10731;SDS011;74907;42.812;23.216;2024-02-23T14:05:02;6.87;;;6.23;;
10731;SDS011;74907;42.812;23.216;2024-02-23T14:07:30;5.00;;;4.60;;
10731;SDS011;74907;42.812;23.216;2024-02-23T14:09:58;3.03;;;2.83;;
10731;SDS011;74907;42.812;23.216;2024-02-23T14:12:25;3.73;;;2.50;;
10731;SDS011;74907;42.812;23.216;2024-02-23T14:14:53;2.13;;;2.03;;
10731;SDS011;74907;42.812;23.216;2024-02-23T14:17:19;2.30;;;2.20;;
10731;SDS011;74907;42.812;23.216;2024-02-23T14:19:46;3.73;;;3.30;;
10731;SDS011;74907;42.812;23.216;2024-02-23T14:22:13;3.20;;;3.00;;